Whitney, Nebraska
Current Conditions -  °F | °C
As of 2:53 AM on Tuesday 21 Oct 2014 (Local Time) from KCDR Reporting Station
Clear Clear  
Wind Chill: 60°   Ceiling: Unl
Heat Index: 60°   Visibility: 10mi
Dew Point: 42°   Wind: 13mph
Humidity: 51%   Direction: 240°WSW
Pressure: 29.9"   Gusts: NA
Location:  42.78°N, 103.26°W
Report Text: KCDR 210853Z AUTO 24011KT 10SM CLR 16/06 A2990 RMK AO2 SLP105 60000 T01560056 58003
Loading
Personal Weather Stations






























Interactive Weather Map
Tropical Storm Tracking
New forecast layout! Learn more

10-Day Weather Forecast

Advertisements
Track Severe Weather on mobile